METAR Formatted Surface Weather Observation
Issued by NWS

Home | Current Version | Previous Version | Text Only | Print | Product List | Glossary On
Versions: 1 2 3
883
SPZS31 NSTU 221909
MTRSPP
SPECI NSTU 221909Z 09024KT 10SM -SHRA VV004 26/25 A2993=


USA.gov is the U.S. government's official web portal to all federal, state and local government web resources and services.